La Barge, Wyoming
Current Conditions -  °F | °C
As of 9:55 PM on Friday 28 Nov 2014 (Local Time) from KPNA Reporting Station
Broken Clouds Broken Clouds  
Wind Chill: 29°   Ceiling: 11000
Heat Index: 37°   Visibility: 10mi
Dew Point: 16°   Wind: 13mph
Humidity: 41%   Direction: 220°SW
Pressure: 29.77"   Gusts: 21mph
Location:  42.26°N, 110.19°W
Report Text: KPNA 290455Z AUTO 22011G18KT 10SM BKN110 03/M09 A2977 RMK AO2
Loading
Personal Weather Stations






























Interactive Weather Map New forecast layout! Learn more

10-Day Weather Forecast

Advertisements
Track Severe Weather on mobile